Haverhill, Massachusetts
Traffic Map
Current Weather Conditions
Haverhill, Massachusetts
Scattered Clouds
Scattered Clouds
77°
Feels Like: 79°
Wind Chill: 77° Ceiling: Unl
Heat Index: 79° Visibility: 10mi
Dew Point: 68° Wind: 6mph
Humidity: 74% Direction: ° ()
Pressure: 29.98in Gusts: 0mph
Raw Report DataKLWM 172154Z VRB05KT 10SM SCT100 25/20 A2998 RMK AO2 LTG DSNT SW RAE30 TSE2056 SLP150 TS SE MOV E P0000 T02500200
Traffic Incident Summary
Active as of:
Severity:
Category:
InformationThere was an issue retrieving the traffic information for this location. Please try a different location or try again shortly.
Advertisements